greek

WEATHER INFORMATION

english


LGTT 290800Z 02012KT CAVOK 34/12 Q1014
TAF LGTT 290700Z 2909/2918 04010KT 9999 FEW020 TEMPO 2909/2912 02010G20KT

 Print LGTT local weather
 EMY AVIATION
 EMY LGTT
 Forecast LGTT
 EMY LGMG
 EMY LGEL
 EMY LGTG
 EMY LGAV
 EMY LGAT
 Latest METAR Reports (OGIMET)
 Latest TAF Reports (OGIMET)
 Greece Forecast
 www.windyty.com
 www.meteo.gr
 SAT 24h
 UK Met Office
 www.kifissiameteo.gr
 forecast.uoa.gr
 www.ntua.gr/weather/
 www.autorouter.eu/gramet
 https://www.aviationweather.gov/sigmet/

Call 210-3533689 to get aviation-weather info for Greece.